createdAt,value
2019-05-30T00:02:17.532Z,6.95
2019-05-30T00:05:23.018Z,6.84
2019-05-30T00:08:28.208Z,6.63
2019-05-30T00:11:33.390Z,6.61
2019-05-30T00:14:38.529Z,6.63
2019-05-30T00:17:43.654Z,6.78
2019-05-30T00:20:48.849Z,6.83
2019-05-30T00:23:54.075Z,7.16
2019-05-30T00:27:00.268Z,7.15
2019-05-30T00:30:23.356Z,7.29
2019-05-30T00:33:14.002Z,7.37
2019-05-30T00:36:19.231Z,7.58
2019-05-30T00:39:24.443Z,7.67
2019-05-30T00:42:29.594Z,7.85
2019-05-30T00:45:34.796Z,7.99
2019-05-30T00:48:39.901Z,7.62
2019-05-30T00:51:45.071Z,7.61
2019-05-30T00:54:50.215Z,7.70
2019-05-30T00:57:56.589Z,7.61
2019-05-30T01:01:03.083Z,7.83
2019-05-30T01:04:08.426Z,7.59
2019-05-30T01:07:13.571Z,7.49
2019-05-30T01:10:19.492Z,7.58
2019-05-30T01:13:24.763Z,7.59
2019-05-30T01:16:29.902Z,7.64
2019-05-30T01:19:35.048Z,7.66
2019-05-30T01:22:40.130Z,7.70
2019-05-30T01:25:45.263Z,7.68
2019-05-30T01:28:50.637Z,7.65
2019-05-30T01:31:55.817Z,7.79
2019-05-30T01:35:01.984Z,7.89
2019-05-30T01:38:08.401Z,7.87
2019-05-30T01:41:13.583Z,7.80
2019-05-30T01:44:18.702Z,8.00
2019-05-30T01:47:23.817Z,7.77
2019-05-30T01:50:28.921Z,7.89
2019-05-30T01:53:34.279Z,7.58
2019-05-30T01:56:39.398Z,7.56
2019-05-30T01:59:44.767Z,7.59
2019-05-30T02:02:49.914Z,7.61
2019-05-30T02:05:55.121Z,7.81
2019-05-30T02:09:01.124Z,7.76
2019-05-30T02:12:07.851Z,7.64
2019-05-30T02:15:13.293Z,7.55
2019-05-30T02:18:18.456Z,7.61
2019-05-30T02:21:23.595Z,7.46
2019-05-30T02:24:28.791Z,7.45
2019-05-30T02:27:35.133Z,7.33
2019-05-30T02:30:40.341Z,7.20
2019-05-30T02:33:45.603Z,7.19
2019-05-30T02:36:51.786Z,7.12
2019-05-30T02:40:00.189Z,7.20
2019-05-30T02:43:05.659Z,7.23
2019-05-30T02:46:12.585Z,7.21
2019-05-30T02:49:17.886Z,7.25
2019-05-30T02:52:23.081Z,7.26
2019-05-30T02:55:28.295Z,7.31
2019-05-30T02:58:33.444Z,7.39
2019-05-30T03:01:58.350Z,7.22
2019-05-30T03:04:45.569Z,7.13
2019-05-30T03:07:50.785Z,7.06
2019-05-30T03:10:55.986Z,6.95
2019-05-30T03:14:04.489Z,6.92
2019-05-30T03:17:11.998Z,6.96
2019-05-30T03:20:22.748Z,6.94
2019-05-30T03:23:23.828Z,7.17
2019-05-30T03:26:29.480Z,7.13
2019-05-30T03:29:34.638Z,7.16
2019-05-30T03:33:03.847Z,7.25
2019-05-30T03:35:47.067Z,7.29
2019-05-30T03:38:52.284Z,7.21
2019-05-30T03:41:57.414Z,7.24
2019-05-30T03:45:04.221Z,7.22
2019-05-30T03:48:14.287Z,7.16
2019-05-30T03:51:21.397Z,7.25
2019-05-30T03:54:27.893Z,7.15
2019-05-30T03:57:37.072Z,7.16
2019-05-30T04:00:51.473Z,7.35
2019-05-30T04:04:09.221Z,7.31
2019-05-30T04:07:20.449Z,7.33
2019-05-30T04:10:29.249Z,7.31
2019-05-30T04:13:55.488Z,7.36
2019-05-30T04:17:00.752Z,7.52
2019-05-30T04:20:09.308Z,7.48
2019-05-30T04:23:14.973Z,7.44
2019-05-30T04:26:21.297Z,7.60
2019-05-30T04:29:26.448Z,7.55
2019-05-30T04:32:32.630Z,7.65
2019-05-30T04:35:37.749Z,7.60
2019-05-30T04:38:43.037Z,7.73
2019-05-30T04:41:48.170Z,8.01
2019-05-30T04:44:53.422Z,7.94
2019-05-30T04:47:58.588Z,7.96
2019-05-30T04:51:03.757Z,7.98
2019-05-30T04:54:12.566Z,7.92
2019-05-30T04:57:16.929Z,7.86
2019-05-30T05:00:22.247Z,8.09
2019-05-30T05:03:44.168Z,8.05
2019-05-30T05:06:34.270Z,7.98
2019-05-30T05:09:39.466Z,8.15
2019-05-30T05:12:44.632Z,8.14
2019-05-30T05:15:49.796Z,8.19
2019-05-30T05:18:55.006Z,8.22
2019-05-30T05:22:00.161Z,8.46
2019-05-30T05:25:05.966Z,8.47
2019-05-30T05:28:11.270Z,8.69
2019-05-30T05:31:16.688Z,8.74
2019-05-30T05:34:22.796Z,8.72
2019-05-30T05:37:28.115Z,9.07
2019-05-30T05:40:33.360Z,9.07
2019-05-30T05:43:38.531Z,9.25
2019-05-30T05:46:43.687Z,9.36
2019-05-30T05:49:48.936Z,9.49
2019-05-30T05:52:54.178Z,9.36
2019-05-30T05:55:59.255Z,9.34
2019-05-30T05:59:04.431Z,9.18
2019-05-30T06:02:10.421Z,8.94
2019-05-30T06:05:16.007Z,9.15
2019-05-30T06:08:21.504Z,9.14
2019-05-30T06:11:26.809Z,9.26
2019-05-30T06:14:31.995Z,9.93
2019-05-30T06:17:37.170Z,9.72
2019-05-30T06:20:42.402Z,9.58
2019-05-30T06:23:47.606Z,9.65
2019-05-30T06:26:53.899Z,9.83
2019-05-30T06:29:59.110Z,9.71
2019-05-30T06:33:04.256Z,9.76
2019-05-30T06:36:09.702Z,10.05
2019-05-30T06:39:16.215Z,9.94
2019-05-30T06:42:21.738Z,10.09
2019-05-30T06:45:26.927Z,10.50
2019-05-30T06:48:32.125Z,11.05
2019-05-30T06:51:37.382Z,11.10
2019-05-30T06:54:42.745Z,11.35
2019-05-30T06:57:47.949Z,11.87
2019-05-30T07:00:53.071Z,12.48
2019-05-30T07:03:58.449Z,12.74
2019-05-30T07:07:05.947Z,13.41
2019-05-30T07:10:11.188Z,13.79
2019-05-30T07:13:16.624Z,13.40
2019-05-30T07:16:23.292Z,14.06
2019-05-30T07:19:29.499Z,14.04
2019-05-30T07:22:34.774Z,13.73
2019-05-30T07:25:40.004Z,13.74
2019-05-30T07:28:45.215Z,14.08
2019-05-30T07:31:50.375Z,14.41
2019-05-30T07:35:06.001Z,14.32
2019-05-30T07:38:03.459Z,14.80
2019-05-30T07:41:08.612Z,14.23
2019-05-30T07:44:13.802Z,14.72
2019-05-30T07:47:18.990Z,14.96
2019-05-30T07:50:24.205Z,14.75
2019-05-30T07:53:29.371Z,15.03
2019-05-30T07:56:35.202Z,15.70
2019-05-30T07:59:40.392Z,15.89
2019-05-30T08:02:45.528Z,15.36
2019-05-30T08:05:50.693Z,15.42
2019-05-30T08:08:55.854Z,15.48
2019-05-30T08:12:01.034Z,16.28
2019-05-30T08:15:07.226Z,16.41
2019-05-30T08:18:13.453Z,16.17
2019-05-30T08:21:18.677Z,15.75
2019-05-30T08:24:23.852Z,16.24
2019-05-30T08:27:32.361Z,16.73
2019-05-30T08:30:38.719Z,17.21
2019-05-30T08:33:47.263Z,17.28
2019-05-30T08:36:51.844Z,17.53
2019-05-30T08:39:57.105Z,17.90
2019-05-30T08:43:02.296Z,18.09
2019-05-30T08:46:07.700Z,18.64
2019-05-30T08:49:12.993Z,18.11
2019-05-30T08:52:18.184Z,18.25
2019-05-30T08:55:23.421Z,18.76
2019-05-30T08:58:28.729Z,19.32
2019-05-30T09:01:35.723Z,19.32
2019-05-30T09:04:41.994Z,19.31
2019-05-30T09:07:47.265Z,19.79
2019-05-30T09:10:52.485Z,20.12
2019-05-30T09:13:57.616Z,20.16
2019-05-30T09:17:02.864Z,19.61
2019-05-30T09:20:10.185Z,19.09
2019-05-30T09:23:15.402Z,18.96
2019-05-30T09:26:20.524Z,18.92
2019-05-30T09:29:25.634Z,18.77
2019-05-30T09:32:30.810Z,19.19
2019-05-30T09:35:36.113Z,18.58
2019-05-30T09:38:41.816Z,18.63
2019-05-30T09:41:47.750Z,19.66
2019-05-30T09:44:52.889Z,20.46
2019-05-30T09:47:58.193Z,20.56
2019-05-30T09:51:03.374Z,21.11
2019-05-30T09:54:08.567Z,20.75
2019-05-30T09:57:13.692Z,21.72
2019-05-30T10:00:19.704Z,22.48
2019-05-30T10:03:24.955Z,21.98
2019-05-30T10:06:30.395Z,21.93
2019-05-30T10:09:35.559Z,22.52
2019-05-30T10:12:41.682Z,21.67
2019-05-30T10:15:47.075Z,21.56
2019-05-30T10:18:52.886Z,22.16
2019-05-30T10:21:58.104Z,21.59
2019-05-30T10:25:03.455Z,21.47
2019-05-30T10:28:08.695Z,22.05
2019-05-30T10:31:13.818Z,21.86
2019-05-30T10:34:18.975Z,21.87
2019-05-30T10:37:24.206Z,22.06
2019-05-30T10:40:32.073Z,22.33
2019-05-30T10:43:36.308Z,22.88
2019-05-30T10:46:41.426Z,23.95
2019-05-30T10:49:48.031Z,24.15
2019-05-30T10:52:53.698Z,23.01
2019-05-30T10:55:59.920Z,22.44
2019-05-30T10:59:05.165Z,22.11
2019-05-30T11:02:10.411Z,22.27
2019-05-30T11:05:16.093Z,21.61
2019-05-30T11:08:24.269Z,21.31
2019-05-30T11:11:29.476Z,22.04
2019-05-30T11:14:34.581Z,21.68
2019-05-30T11:17:39.727Z,21.89
2019-05-30T11:20:44.906Z,22.39
2019-05-30T11:23:51.437Z,22.73
2019-05-30T11:26:57.238Z,23.54
2019-05-30T11:30:02.397Z,22.95
2019-05-30T11:33:07.674Z,22.56
2019-05-30T11:36:12.963Z,23.32
2019-05-30T11:39:18.117Z,22.85
2019-05-30T11:42:23.252Z,22.87
2019-05-30T11:45:28.436Z,22.51
2019-05-30T11:48:33.585Z,22.50
2019-05-30T11:51:38.819Z,23.68
2019-05-30T11:54:43.931Z,23.88
2019-05-30T11:57:50.011Z,24.40
2019-05-30T12:00:56.329Z,24.17
2019-05-30T12:04:01.657Z,23.71
2019-05-30T12:07:07.733Z,23.63
2019-05-30T12:10:13.103Z,24.15
2019-05-30T12:13:18.347Z,24.25
2019-05-30T12:16:23.500Z,24.44
2019-05-30T12:19:30.459Z,24.98
2019-05-30T12:22:35.571Z,24.54
2019-05-30T12:25:40.785Z,23.88
2019-05-30T12:28:46.020Z,24.33
2019-05-30T12:31:52.332Z,23.75
2019-05-30T12:34:58.381Z,23.60
2019-05-30T12:38:06.442Z,25.08
2019-05-30T12:41:10.472Z,25.21
2019-05-30T12:44:15.659Z,24.74
2019-05-30T12:47:20.935Z,24.05
2019-05-30T12:50:26.645Z,24.09
2019-05-30T12:53:31.830Z,24.07
2019-05-30T12:56:36.969Z,24.44
2019-05-30T12:59:42.130Z,23.86
2019-05-30T13:02:47.297Z,24.57
2019-05-30T13:05:52.548Z,24.64
2019-05-30T13:08:57.677Z,25.33
2019-05-30T13:12:02.834Z,25.45
2019-05-30T13:15:08.581Z,24.76
2019-05-30T13:18:13.849Z,24.55
2019-05-30T13:21:19.134Z,24.61
2019-05-30T13:24:26.251Z,24.69
2019-05-30T13:27:31.465Z,25.11
2019-05-30T13:30:36.942Z,24.93
2019-05-30T13:33:42.033Z,24.85
2019-05-30T13:36:47.185Z,25.03
2019-05-30T13:39:52.334Z,25.05
2019-05-30T13:42:57.811Z,25.05
2019-05-30T13:46:04.441Z,24.98
2019-05-30T13:49:09.789Z,24.63
2019-05-30T13:52:14.999Z,24.74
2019-05-30T13:55:20.841Z,23.88
2019-05-30T13:58:25.870Z,24.66
2019-05-30T14:01:31.053Z,23.89
2019-05-30T14:04:36.157Z,23.97
2019-05-30T14:07:41.393Z,24.00
2019-05-30T14:10:46.594Z,24.15
2019-05-30T14:13:51.787Z,24.13
2019-05-30T14:16:56.988Z,23.93
2019-05-30T14:20:03.016Z,23.78
2019-05-30T14:23:09.377Z,23.66
2019-05-30T14:26:14.545Z,24.65
2019-05-30T14:29:19.686Z,23.18
2019-05-30T14:32:24.835Z,23.60
2019-05-30T14:35:29.992Z,22.92
2019-05-30T14:38:35.288Z,22.81
2019-05-30T14:41:40.465Z,22.81
2019-05-30T14:44:45.659Z,23.22
2019-05-30T14:47:50.817Z,23.09
2019-05-30T14:50:55.999Z,23.35
2019-05-30T14:54:01.224Z,23.35
2019-05-30T14:57:06.799Z,23.94
2019-05-30T15:00:14.533Z,23.21
2019-05-30T15:03:19.715Z,23.46
2019-05-30T15:06:24.895Z,23.60
2019-05-30T15:09:29.995Z,24.76
2019-05-30T15:12:35.186Z,25.14
2019-05-30T15:15:40.343Z,25.17
2019-05-30T15:18:45.489Z,24.07
2019-05-30T15:21:50.713Z,25.02
2019-05-30T15:24:55.931Z,24.34
2019-05-30T15:28:01.139Z,23.91
2019-05-30T15:31:06.829Z,24.13
2019-05-30T15:34:12.599Z,24.58
2019-05-30T15:37:17.756Z,23.55
2019-05-30T15:40:22.920Z,24.61
2019-05-30T15:43:28.050Z,24.67
2019-05-30T15:46:33.286Z,23.74
2019-05-30T15:49:38.463Z,23.69
2019-05-30T15:52:43.612Z,23.96
2019-05-30T15:55:48.859Z,23.96
2019-05-30T15:58:54.344Z,23.97
2019-05-30T16:01:59.576Z,23.79
2019-05-30T16:05:05.799Z,23.84
2019-05-30T16:08:11.129Z,23.64
2019-05-30T16:11:17.009Z,23.75
2019-05-30T16:14:22.254Z,23.48
2019-05-30T16:17:27.502Z,24.07
2019-05-30T16:20:32.760Z,23.42
2019-05-30T16:23:37.952Z,23.58
2019-05-30T16:26:43.146Z,23.61
2019-05-30T16:29:48.283Z,22.88
2019-05-30T16:32:53.450Z,22.72
2019-05-30T16:35:58.549Z,22.46
2019-05-30T16:39:03.869Z,22.63
2019-05-30T16:42:09.636Z,22.71
2019-05-30T16:45:19.494Z,22.47
2019-05-30T16:48:22.536Z,21.98
2019-05-30T16:51:27.683Z,22.69
2019-05-30T16:54:32.905Z,23.17
2019-05-30T16:57:38.184Z,22.95
2019-05-30T17:00:44.265Z,23.11
2019-05-30T17:03:49.426Z,22.68
2019-05-30T17:06:54.555Z,22.76
2019-05-30T17:09:59.800Z,23.11
2019-05-30T17:13:04.967Z,24.23
2019-05-30T17:16:10.297Z,24.37
2019-05-30T17:19:16.411Z,24.49
2019-05-30T17:22:22.782Z,24.91
2019-05-30T17:25:27.991Z,24.50
2019-05-30T17:28:34.280Z,25.67
2019-05-30T17:31:39.473Z,24.93
2019-05-30T17:34:44.640Z,25.63
2019-05-30T17:37:49.770Z,24.93
2019-05-30T17:40:56.386Z,24.51
2019-05-30T17:44:01.575Z,23.86
2019-05-30T17:47:06.797Z,22.34
2019-05-30T17:50:13.011Z,22.06
2019-05-30T17:53:18.168Z,21.46
2019-05-30T17:56:24.019Z,21.29
2019-05-30T17:59:30.409Z,20.86
2019-05-30T18:02:35.740Z,20.81
2019-05-30T18:05:43.016Z,20.83
2019-05-30T18:08:48.190Z,20.49
2019-05-30T18:11:54.228Z,20.26
2019-05-30T18:14:59.369Z,20.17
2019-05-30T18:18:04.880Z,19.79
2019-05-30T18:21:10.206Z,19.64
2019-05-30T18:24:15.469Z,19.77
2019-05-30T18:27:21.706Z,19.65
2019-05-30T18:30:39.780Z,19.51
2019-05-30T18:33:45.226Z,19.52
2019-05-30T18:36:51.890Z,19.33
2019-05-30T18:39:57.503Z,19.08
2019-05-30T18:43:02.667Z,18.66
2019-05-30T18:46:08.173Z,18.21
2019-05-30T18:49:16.570Z,18.21
2019-05-30T18:52:21.780Z,18.26
2019-05-30T18:55:26.967Z,17.98
2019-05-30T18:58:33.271Z,17.84
2019-05-30T19:01:38.589Z,17.65
2019-05-30T19:04:43.737Z,17.65
2019-05-30T19:07:48.938Z,17.55
2019-05-30T19:10:54.163Z,17.43
2019-05-30T19:13:59.388Z,17.33
2019-05-30T19:17:05.681Z,17.17
2019-05-30T19:20:12.754Z,16.83
2019-05-30T19:23:19.607Z,16.97
2019-05-30T19:26:24.808Z,16.83
2019-05-30T19:29:31.067Z,16.75
2019-05-30T19:32:36.958Z,16.86
2019-05-30T19:35:42.246Z,16.60
2019-05-30T19:38:47.420Z,16.47
2019-05-30T19:41:57.103Z,16.38
2019-05-30T19:44:59.536Z,16.42
2019-05-30T19:48:04.712Z,16.34
2019-05-30T19:51:10.148Z,16.29
2019-05-30T19:54:15.480Z,16.28
2019-05-30T19:57:20.709Z,16.12
2019-05-30T20:00:26.577Z,16.08
2019-05-30T20:03:38.472Z,16.01
2019-05-30T20:06:38.824Z,15.82
2019-05-30T20:09:43.920Z,15.59
2019-05-30T20:12:50.506Z,15.41
2019-05-30T20:15:55.698Z,15.19
2019-05-30T20:19:00.997Z,14.97
2019-05-30T20:22:06.285Z,14.94
2019-05-30T20:25:11.631Z,14.91
2019-05-30T20:28:17.028Z,14.83
2019-05-30T20:31:22.258Z,14.77
2019-05-30T20:34:27.495Z,14.81
2019-05-30T20:37:32.697Z,14.66
2019-05-30T20:40:38.862Z,14.62
2019-05-30T20:43:44.253Z,14.38
2019-05-30T20:46:49.471Z,14.33
2019-05-30T20:49:54.698Z,14.19
2019-05-30T20:52:59.857Z,14.14
2019-05-30T20:56:05.049Z,14.00
2019-05-30T20:59:10.627Z,13.89
2019-05-30T21:02:15.888Z,13.94
2019-05-30T21:05:21.182Z,13.99
2019-05-30T21:08:26.703Z,13.95
2019-05-30T21:11:33.600Z,13.82
2019-05-30T21:14:41.400Z,13.74
2019-05-30T21:17:47.354Z,13.59
2019-05-30T21:20:52.607Z,13.49
2019-05-30T21:23:57.777Z,13.66
2019-05-30T21:27:02.945Z,13.49
2019-05-30T21:30:08.636Z,13.36
2019-05-30T21:33:13.852Z,13.35
2019-05-30T21:36:19.024Z,13.22
2019-05-30T21:39:24.286Z,13.23
2019-05-30T21:42:29.455Z,13.14
2019-05-30T21:45:34.574Z,13.07
2019-05-30T21:48:40.830Z,13.07
2019-05-30T21:51:46.139Z,12.98
2019-05-30T21:54:51.356Z,12.99
2019-05-30T21:57:56.535Z,13.13
2019-05-30T22:01:25.297Z,13.12
2019-05-30T22:04:30.492Z,13.16
2019-05-30T22:07:36.908Z,13.18
2019-05-30T22:10:43.086Z,13.25
2019-05-30T22:13:49.438Z,13.42
2019-05-30T22:16:54.834Z,13.42
2019-05-30T22:19:59.922Z,13.27
2019-05-30T22:23:05.145Z,13.17
2019-05-30T22:26:10.488Z,13.17
2019-05-30T22:29:15.726Z,13.19
2019-05-30T22:32:20.854Z,13.20
2019-05-30T22:35:26.029Z,13.20
2019-05-30T22:38:31.134Z,13.15
2019-05-30T22:41:36.301Z,13.17
2019-05-30T22:44:41.463Z,13.19
2019-05-30T22:47:46.650Z,13.27
2019-05-30T22:50:52.883Z,13.30
2019-05-30T22:53:57.963Z,13.32
2019-05-30T22:57:03.096Z,13.36
2019-05-30T23:00:08.467Z,13.49
2019-05-30T23:03:13.763Z,13.49
2019-05-30T23:06:19.028Z,13.49
2019-05-30T23:09:24.193Z,13.48
2019-05-30T23:12:29.360Z,13.58
2019-05-30T23:15:34.595Z,13.58
2019-05-30T23:18:39.731Z,13.50
2019-05-30T23:21:44.889Z,13.40
2019-05-30T23:24:52.053Z,13.38
2019-05-30T23:27:57.638Z,13.32
2019-05-30T23:31:02.888Z,13.27
2019-05-30T23:34:07.997Z,13.27
2019-05-30T23:37:13.244Z,13.23
2019-05-30T23:40:18.673Z,13.23
2019-05-30T23:43:23.866Z,13.22
2019-05-30T23:46:29.010Z,13.18
2019-05-30T23:49:34.309Z,13.22
2019-05-30T23:52:39.411Z,13.20
2019-05-30T23:55:44.574Z,13.17
2019-05-30T23:58:50.534Z,13.29
